Time;durP1;ratioP1;P1;durP2;ratioP2;P2;SDS_P1;SDS_P2;PMS_P1;PMS_P2;Temp;Humidity;BMP_temperature;BMP_pressure;BME280_temperature;BME280_humidity;BME280_pressure;Samples;Min_cycle;Max_cycle;Signal;HPM_P1;HPM_P2
2023/04/11 00:01:28;;;;;;;6.30;0.80;;;6.70;99.90;;;;;;4953894;28;20046;-73
2023/04/11 00:03:55;;;;;;;8.32;1.33;;;6.70;99.90;;;;;;4978635;28;20097;-72
2023/04/11 00:06:22;;;;;;;6.15;0.82;;;6.70;99.90;;;;;;4969974;28;20043;-71
2023/04/11 00:08:48;;;;;;;6.45;1.10;;;6.70;99.90;;;;;;4965330;28;20061;-72
2023/04/11 00:11:14;;;;;;;6.07;1.00;;;6.70;99.90;;;;;;4969799;28;20902;-72
2023/04/11 00:13:41;;;;;;;7.50;0.82;;;6.60;99.90;;;;;;4966878;28;20042;-71
2023/04/11 00:16:08;;;;;;;5.65;1.00;;;6.70;99.90;;;;;;4965493;28;20121;-72
2023/04/11 00:18:36;;;;;;;4.15;1.00;;;6.60;99.90;;;;;;4970961;28;20042;-71
2023/04/11 00:21:07;;;;;;;4.13;0.60;;;6.70;99.90;;;;;;4965935;28;20425;-71
2023/04/11 00:23:32;;;;;;;4.78;0.60;;;6.60;99.90;;;;;;4962642;28;20490;-71
2023/04/11 00:25:58;;;;;;;4.78;0.80;;;6.60;99.90;;;;;;4968187;28;20160;-71
2023/04/11 00:28:24;;;;;;;6.15;1.05;;;6.60;99.90;;;;;;4987308;28;20051;-71
2023/04/11 00:30:50;;;;;;;3.35;0.80;;;6.50;99.90;;;;;;4972201;28;20053;-71
2023/04/11 00:33:15;;;;;;;9.80;1.63;;;6.40;99.90;;;;;;4982461;28;20043;-70
2023/04/11 00:35:41;;;;;;;9.68;1.25;;;6.40;99.90;;;;;;4969677;28;20413;-70
2023/04/11 00:38:07;;;;;;;6.22;1.00;;;6.40;99.90;;;;;;4983237;28;20043;-70
2023/04/11 00:40:33;;;;;;;7.10;1.20;;;6.40;99.90;;;;;;4968772;28;20053;-70
2023/04/11 00:42:58;;;;;;;5.05;1.25;;;6.40;99.90;;;;;;4968869;28;20043;-70
2023/04/11 00:45:25;;;;;;;6.38;0.90;;;6.30;99.90;;;;;;4965002;28;20561;-70
2023/04/11 00:47:51;;;;;;;5.93;0.80;;;6.30;99.90;;;;;;4967699;28;20100;-70
2023/04/11 00:50:17;;;;;;;4.28;1.10;;;6.20;99.90;;;;;;4986637;28;20064;-70
2023/04/11 00:52:46;;;;;;;4.10;1.10;;;6.20;99.90;;;;;;4985648;28;20049;-70
2023/04/11 00:55:13;;;;;;;5.72;1.20;;;6.20;99.90;;;;;;4967934;28;20077;-70
2023/04/11 00:57:40;;;;;;;5.47;1.00;;;6.20;99.90;;;;;;4983439;28;20042;-70
2023/04/11 01:00:09;;;;;;;6.40;1.92;;;6.20;99.90;;;;;;4970873;28;20049;-70
2023/04/11 01:02:36;;;;;;;8.50;1.98;;;6.30;99.90;;;;;;4964306;28;20073;-70
2023/04/11 01:05:04;;;;;;;6.72;1.27;;;6.30;99.90;;;;;;4970369;28;20273;-69
2023/04/11 01:07:31;;;;;;;8.65;1.33;;;6.40;99.90;;;;;;4964312;28;20081;-70
2023/04/11 01:09:58;;;;;;;7.65;1.60;;;6.40;99.90;;;;;;4967420;28;20053;-70
2023/04/11 01:12:25;;;;;;;11.82;1.42;;;6.50;99.90;;;;;;4971519;28;20742;-69
2023/04/11 01:14:50;;;;;;;9.77;1.50;;;6.50;99.90;;;;;;4965409;28;20038;-70
2023/04/11 01:17:16;;;;;;;8.32;1.73;;;6.60;99.90;;;;;;4963911;28;20045;-70
2023/04/11 01:19:42;;;;;;;13.88;1.70;;;6.60;99.90;;;;;;4971831;28;20041;-69
2023/04/11 01:22:10;;;;;;;8.23;1.75;;;6.70;99.90;;;;;;4958366;28;20097;-70
2023/04/11 01:24:36;;;;;;;7.97;1.77;;;6.70;99.90;;;;;;4971903;28;20449;-70
2023/04/11 01:27:02;;;;;;;13.23;2.05;;;6.70;99.90;;;;;;4967038;28;20133;-69
2023/04/11 01:29:27;;;;;;;10.40;1.75;;;6.80;99.90;;;;;;4964438;28;20056;-69
2023/04/11 01:31:53;;;;;;;12.82;1.67;;;6.80;99.90;;;;;;4955275;28;20146;-69
2023/04/11 01:34:20;;;;;;;13.40;2.50;;;6.80;99.90;;;;;;4981898;28;20447;-69
2023/04/11 01:36:47;;;;;;;6.93;1.55;;;6.80;99.90;;;;;;4961596;28;20498;-70
2023/04/11 01:39:12;;;;;;;13.27;2.03;;;6.80;99.90;;;;;;4967028;28;20070;-69
2023/04/11 01:41:39;;;;;;;11.10;1.73;;;6.80;99.90;;;;;;4970827;28;20054;-69
2023/04/11 01:44:05;;;;;;;9.63;1.30;;;6.80;99.90;;;;;;4987835;28;20032;-69
2023/04/11 01:46:31;;;;;;;8.52;2.28;;;6.70;99.90;;;;;;4983473;28;20129;-69
2023/04/11 01:48:58;;;;;;;11.32;1.83;;;6.70;99.90;;;;;;4952384;28;20183;-70
2023/04/11 01:51:24;;;;;;;16.25;1.80;;;6.60;99.90;;;;;;4963883;28;20061;-69
2023/04/11 01:53:50;;;;;;;11.05;1.98;;;6.60;99.90;;;;;;4962289;28;20126;-70
2023/04/11 01:56:15;;;;;;;14.15;2.08;;;6.60;99.90;;;;;;4970292;28;20085;-69
2023/04/11 01:58:41;;;;;;;9.73;1.80;;;6.60;99.90;;;;;;4976819;28;20154;-69
2023/04/11 02:01:07;;;;;;;12.80;2.38;;;6.60;99.90;;;;;;4978340;28;20136;-70
2023/04/11 02:03:33;;;;;;;12.70;2.50;;;6.60;99.90;;;;;;4963716;28;20046;-69
2023/04/11 02:05:58;;;;;;;8.30;1.63;;;6.60;99.90;;;;;;4976320;28;20121;-70
2023/04/11 02:08:24;;;;;;;12.82;2.95;;;6.60;99.90;;;;;;4961785;28;20474;-70
2023/04/11 02:10:50;;;;;;;14.32;2.03;;;6.70;99.90;;;;;;4981820;28;20046;-69
2023/04/11 02:13:16;;;;;;;12.15;2.25;;;6.70;99.90;;;;;;4968650;28;20514;-69
2023/04/11 02:15:41;;;;;;;11.18;2.00;;;6.60;99.90;;;;;;4966333;28;20045;-69
2023/04/11 02:18:08;;;;;;;17.02;2.60;;;6.70;99.90;;;;;;4965453;28;20034;-69
2023/04/11 02:20:36;;;;;;;18.95;3.40;;;6.70;99.90;;;;;;4962599;28;20251;-68
2023/04/11 02:23:03;;;;;;;7.80;1.75;;;6.70;99.90;;;;;;4964192;28;20074;-69
2023/04/11 02:25:32;;;;;;;15.88;2.72;;;6.80;99.90;;;;;;4965093;28;20046;-69
2023/04/11 02:27:58;;;;;;;19.45;2.60;;;6.80;99.90;;;;;;4962072;28;20042;-70
2023/04/11 02:30:24;;;;;;;14.05;3.33;;;6.90;99.90;;;;;;4967620;28;20054;-70
2023/04/11 02:32:50;;;;;;;16.02;2.63;;;6.90;99.90;;;;;;4955333;28;20274;-70
2023/04/11 02:35:16;;;;;;;10.52;1.40;;;6.90;99.90;;;;;;4967148;28;20603;-72
2023/04/11 02:37:42;;;;;;;4.78;0.98;;;6.90;99.90;;;;;;4973501;28;20364;-71
2023/04/11 02:40:09;;;;;;;7.57;1.30;;;6.90;99.90;;;;;;4970380;28;20042;-71
2023/04/11 02:42:35;;;;;;;6.55;1.55;;;6.80;99.90;;;;;;4971607;28;20498;-72
2023/04/11 02:45:02;;;;;;;7.07;1.20;;;6.80;99.90;;;;;;4966978;28;20030;-71
2023/04/11 02:47:27;;;;;;;10.40;1.45;;;6.80;99.90;;;;;;4982937;28;20449;-71
2023/04/11 02:49:53;;;;;;;4.72;1.05;;;6.80;99.90;;;;;;4970914;28;20074;-71
2023/04/11 02:52:19;;;;;;;8.38;1.30;;;6.80;99.90;;;;;;4970552;28;20468;-70
2023/04/11 02:54:45;;;;;;;4.45;1.10;;;6.80;99.90;;;;;;4966346;28;20046;-70
2023/04/11 02:57:11;;;;;;;7.53;1.27;;;6.80;99.90;;;;;;4974199;28;20045;-70
2023/04/11 02:59:37;;;;;;;7.25;1.75;;;6.80;99.90;;;;;;4972508;28;20034;-70
2023/04/11 03:02:03;;;;;;;9.52;1.45;;;6.80;99.90;;;;;;4974091;28;20034;-71
2023/04/11 03:04:29;;;;;;;10.48;1.67;;;6.80;99.90;;;;;;4968385;28;20039;-70
2023/04/11 03:06:55;;;;;;;9.80;1.67;;;6.80;99.90;;;;;;4985888;28;20114;-70
2023/04/11 03:09:24;;;;;;;9.43;2.10;;;6.80;99.90;;;;;;4967141;28;20050;-70
2023/04/11 03:11:50;;;;;;;14.88;2.22;;;6.90;99.90;;;;;;4984031;28;20042;-70
2023/04/11 03:14:16;;;;;;;17.10;2.35;;;6.90;99.90;;;;;;4966061;28;20039;-70
2023/04/11 03:16:42;;;;;;;12.73;2.15;;;6.90;99.90;;;;;;4965108;28;20737;-70
2023/04/11 03:19:07;;;;;;;14.15;2.40;;;6.90;99.90;;;;;;4969387;28;20057;-70
2023/04/11 03:21:33;;;;;;;10.73;2.60;;;7.00;99.90;;;;;;4970149;28;20050;-69
2023/04/11 03:23:59;;;;;;;9.38;2.25;;;7.00;99.90;;;;;;4968370;28;20498;-70
2023/04/11 03:26:25;;;;;;;14.90;2.67;;;7.00;99.90;;;;;;4976667;28;20534;-70
2023/04/11 03:28:52;;;;;;;21.45;2.55;;;7.00;99.90;;;;;;4968633;28;20083;-69
2023/04/11 03:31:18;;;;;;;14.73;2.92;;;7.00;99.90;;;;;;4969152;28;20545;-70
2023/04/11 03:33:45;;;;;;;19.13;2.95;;;7.10;99.90;;;;;;4963840;28;20224;-70
2023/04/11 03:36:11;;;;;;;24.10;3.30;;;7.10;99.90;;;;;;4967073;28;20434;-70
2023/04/11 03:38:37;;;;;;;15.63;2.85;;;7.10;99.90;;;;;;4984357;28;20047;-70
2023/04/11 03:41:03;;;;;;;12.70;2.10;;;7.10;99.90;;;;;;4971817;28;20375;-69
2023/04/11 03:43:29;;;;;;;21.20;2.67;;;7.20;99.90;;;;;;4967317;28;20039;-70
2023/04/11 03:45:54;;;;;;;17.27;2.72;;;7.20;99.90;;;;;;4967157;28;20080;-70
2023/04/11 03:48:20;;;;;;;16.08;2.38;;;7.30;99.90;;;;;;4957136;28;20088;-70
2023/04/11 03:50:46;;;;;;;12.68;1.75;;;7.30;99.90;;;;;;4967389;28;20098;-70
2023/04/11 03:53:12;;;;;;;14.55;1.95;;;7.40;99.90;;;;;;4981064;28;20345;-69
2023/04/11 03:55:37;;;;;;;15.68;2.10;;;7.40;99.90;;;;;;4968987;28;20041;-70
2023/04/11 03:58:03;;;;;;;12.85;1.90;;;7.40;99.90;;;;;;4966768;28;20044;-70
2023/04/11 04:00:29;;;;;;;13.68;2.10;;;7.50;99.90;;;;;;4969052;28;20105;-70
2023/04/11 04:02:55;;;;;;;13.27;1.60;;;7.40;99.90;;;;;;4964060;28;20039;-70
2023/04/11 04:05:20;;;;;;;14.60;2.42;;;7.50;99.90;;;;;;4982990;28;20117;-70
2023/04/11 04:07:46;;;;;;;11.70;1.85;;;7.50;99.90;;;;;;4966703;28;20142;-71
2023/04/11 04:10:12;;;;;;;12.40;1.70;;;7.50;99.90;;;;;;4982537;28;20093;-70
2023/04/11 04:12:38;;;;;;;11.60;1.92;;;7.50;99.90;;;;;;4963525;28;20141;-70
2023/04/11 04:15:05;;;;;;;12.93;1.80;;;7.50;99.90;;;;;;4966557;28;20521;-70
2023/04/11 04:17:30;;;;;;;11.63;1.88;;;7.50;99.90;;;;;;4967943;28;20078;-70
2023/04/11 04:19:56;;;;;;;7.85;1.38;;;7.50;99.90;;;;;;4970742;28;20106;-70
2023/04/11 04:22:22;;;;;;;10.25;1.63;;;7.50;99.90;;;;;;4966341;28;20439;-70
2023/04/11 04:24:48;;;;;;;12.48;1.75;;;7.50;99.90;;;;;;4966493;28;20050;-70
2023/04/11 04:27:16;;;;;;;12.43;1.67;;;7.60;99.90;;;;;;4963713;28;20050;-70
2023/04/11 04:29:46;;;;;;;10.70;1.80;;;7.50;99.90;;;;;;4964092;28;20495;-70
2023/04/11 04:32:22;;;;;;;8.05;1.35;;;7.60;99.90;;;;;;4966920;28;20121;-70
2023/04/11 04:34:53;;;;;;;8.13;1.92;;;7.60;99.90;;;;;;4983850;28;20785;-69
2023/04/11 04:37:21;;;;;;;7.68;1.15;;;7.50;99.90;;;;;;4968450;28;20133;-70
2023/04/11 04:39:55;;;;;;;15.05;2.60;;;7.50;99.90;;;;;;4967743;28;20038;-70
2023/04/11 04:42:25;;;;;;;13.73;2.10;;;7.50;99.90;;;;;;4960225;28;20507;-71
2023/04/11 04:44:52;;;;;;;11.23;2.08;;;7.50;99.90;;;;;;4967505;28;20610;-71
2023/04/11 04:47:22;;;;;;;10.57;1.92;;;7.50;99.90;;;;;;4969853;28;20097;-70
2023/04/11 04:49:52;;;;;;;10.13;1.67;;;7.50;99.90;;;;;;4962687;28;20043;-70
2023/04/11 04:52:18;;;;;;;9.88;1.65;;;7.50;99.90;;;;;;4968324;28;20070;-70
2023/04/11 04:54:44;;;;;;;9.65;2.05;;;7.50;99.90;;;;;;4967504;28;20514;-70
2023/04/11 04:57:10;;;;;;;13.02;2.25;;;7.50;99.90;;;;;;4971155;28;20494;-70
2023/04/11 04:59:36;;;;;;;10.00;1.83;;;7.50;99.90;;;;;;4960998;28;20410;-70
2023/04/11 05:02:01;;;;;;;9.63;1.75;;;7.40;99.90;;;;;;4985452;28;20502;-70
2023/04/11 05:04:28;;;;;;;10.80;1.92;;;7.40;99.90;;;;;;4966649;28;20057;-69
2023/04/11 05:06:54;;;;;;;7.70;1.60;;;7.40;99.90;;;;;;4985544;28;20509;-70
2023/04/11 05:09:20;;;;;;;9.35;1.65;;;7.40;99.90;;;;;;4967011;28;20058;-70
2023/04/11 05:11:46;;;;;;;10.00;1.65;;;7.50;99.90;;;;;;4971080;28;20518;-70
2023/04/11 05:14:12;;;;;;;7.50;1.85;;;7.40;99.90;;;;;;4973789;28;20108;-70
2023/04/11 05:16:40;;;;;;;7.22;1.65;;;7.40;99.90;;;;;;4969445;28;20122;-70
2023/04/11 05:19:06;;;;;;;14.48;1.92;;;7.40;99.90;;;;;;4965071;28;20406;-70
2023/04/11 05:21:31;;;;;;;12.40;1.83;;;7.40;99.90;;;;;;4966223;28;20049;-69
2023/04/11 05:23:57;;;;;;;9.85;1.70;;;7.30;99.90;;;;;;4969111;28;20112;-70
2023/04/11 05:26:23;;;;;;;9.02;1.50;;;7.30;99.90;;;;;;4968819;28;20046;-70
2023/04/11 05:28:49;;;;;;;6.95;1.58;;;7.30;99.90;;;;;;4965804;28;20065;-69
2023/04/11 05:31:15;;;;;;;7.40;1.58;;;7.30;99.90;;;;;;4970663;28;20042;-70
2023/04/11 05:33:42;;;;;;;10.88;1.42;;;7.20;99.90;;;;;;4970410;28;20049;-70
2023/04/11 05:36:12;;;;;;;11.63;1.90;;;7.30;99.90;;;;;;4969670;28;20049;-70
2023/04/11 05:38:42;;;;;;;6.63;1.85;;;7.30;99.90;;;;;;4971184;28;20044;-69
2023/04/11 05:41:09;;;;;;;9.77;1.88;;;7.30;99.90;;;;;;4963733;28;20061;-70
2023/04/11 05:43:35;;;;;;;9.98;1.33;;;7.30;99.90;;;;;;4987187;28;20046;-69
2023/04/11 05:46:01;;;;;;;8.88;1.63;;;7.30;99.90;;;;;;4963777;28;20034;-69
2023/04/11 05:48:27;;;;;;;7.88;1.60;;;7.30;99.90;;;;;;4976732;28;20049;-69
2023/04/11 05:50:53;;;;;;;11.90;1.50;;;7.30;99.90;;;;;;4967072;28;20045;-67
2023/04/11 05:53:19;;;;;;;8.48;1.40;;;7.40;99.90;;;;;;4984749;28;20038;-69
2023/04/11 05:55:44;;;;;;;7.43;1.42;;;7.40;99.90;;;;;;4970284;28;20100;-69
2023/04/11 05:58:10;;;;;;;11.00;1.40;;;7.40;99.90;;;;;;4960652;28;20043;-69
2023/04/11 06:00:37;;;;;;;9.05;1.55;;;7.40;99.90;;;;;;4970409;28;20089;-69
2023/04/11 06:03:04;;;;;;;7.82;1.50;;;7.40;99.90;;;;;;4957650;28;20093;-69
2023/04/11 06:05:30;;;;;;;9.52;1.17;;;7.40;99.90;;;;;;4976786;28;20423;-69
2023/04/11 06:08:00;;;;;;;12.15;1.30;;;7.40;99.90;;;;;;4968436;28;20052;-69
2023/04/11 06:10:27;;;;;;;8.65;1.20;;;7.40;99.90;;;;;;4958712;28;20133;-68
2023/04/11 06:12:53;;;;;;;8.48;1.77;;;7.50;99.90;;;;;;4969930;28;20129;-69
2023/04/11 06:15:19;;;;;;;8.95;1.38;;;7.50;99.90;;;;;;4984668;28;20158;-68
2023/04/11 06:17:45;;;;;;;12.43;1.60;;;7.50;99.90;;;;;;4966839;28;20047;-69
2023/04/11 06:20:11;;;;;;;7.68;1.15;;;7.50;99.90;;;;;;4971697;28;20053;-69
2023/04/11 06:22:38;;;;;;;9.23;2.10;;;7.50;99.90;;;;;;4972140;28;20061;-68
2023/04/11 06:25:05;;;;;;;9.50;1.35;;;7.50;99.90;;;;;;4973253;28;20117;-69
2023/04/11 06:27:31;;;;;;;8.45;1.92;;;7.60;99.90;;;;;;4984610;28;20053;-68
2023/04/11 06:29:57;;;;;;;10.38;1.67;;;7.60;99.90;;;;;;4971412;28;20052;-68
2023/04/11 06:32:24;;;;;;;7.03;1.33;;;7.60;99.90;;;;;;4988578;28;20113;-68
2023/04/11 06:34:50;;;;;;;8.18;1.80;;;7.60;99.90;;;;;;4969533;28;20050;-68
2023/04/11 06:37:16;;;;;;;12.80;1.50;;;7.70;99.90;;;;;;4984738;28;20410;-68
2023/04/11 06:39:42;;;;;;;9.88;1.88;;;7.70;99.90;;;;;;4971327;28;20073;-68
2023/04/11 06:42:07;;;;;;;13.38;1.45;;;7.70;99.90;;;;;;4965417;28;20062;-69
2023/04/11 06:44:33;;;;;;;14.38;1.52;;;7.80;99.90;;;;;;4964225;28;20104;-69
2023/04/11 06:46:59;;;;;;;7.68;1.38;;;7.80;99.90;;;;;;4968962;28;20493;-68
2023/04/11 06:49:27;;;;;;;10.20;1.30;;;7.80;99.90;;;;;;4970680;28;20548;-68
2023/04/11 06:51:53;;;;;;;11.40;1.52;;;7.80;99.90;;;;;;4958656;28;20074;-68
2023/04/11 06:54:19;;;;;;;10.02;1.55;;;7.80;99.90;;;;;;4983411;28;20042;-68
2023/04/11 06:56:46;;;;;;;11.15;1.38;;;7.80;99.90;;;;;;4975516;28;20038;-68
2023/04/11 06:59:12;;;;;;;10.07;1.77;;;7.80;99.90;;;;;;4982712;28;20043;-68
2023/04/11 07:01:41;;;;;;;12.98;1.70;;;7.80;99.90;;;;;;4970631;28;20042;-68
2023/04/11 07:04:07;;;;;;;11.43;1.88;;;7.90;99.90;;;;;;4970425;28;20487;-68
2023/04/11 07:06:36;;;;;;;11.07;1.77;;;8.00;99.90;;;;;;4974401;28;20038;-69
2023/04/11 07:09:05;;;;;;;9.57;1.52;;;8.10;99.90;;;;;;4965037;28;20488;-68
2023/04/11 07:11:32;;;;;;;11.23;1.50;;;8.30;99.90;;;;;;4966236;28;20050;-68
2023/04/11 07:13:59;;;;;;;14.05;1.77;;;8.30;99.90;;;;;;4968787;28;20492;-69
2023/04/11 07:16:25;;;;;;;10.38;1.75;;;8.40;99.90;;;;;;4970525;28;20122;-69
2023/04/11 07:18:52;;;;;;;14.00;1.80;;;8.40;99.90;;;;;;4967441;28;20119;-69
2023/04/11 07:21:18;;;;;;;9.93;1.70;;;8.50;99.90;;;;;;4969792;28;20050;-69
2023/04/11 07:23:44;;;;;;;10.20;1.80;;;8.50;99.90;;;;;;4959729;28;20043;-68
2023/04/11 07:26:11;;;;;;;7.70;1.60;;;8.50;99.90;;;;;;4968533;28;20165;-68
2023/04/11 07:28:39;;;;;;;9.88;1.52;;;8.50;99.90;;;;;;4964023;28;20043;-68
2023/04/11 07:31:06;;;;;;;7.47;1.15;;;8.40;99.90;;;;;;4964466;28;20058;-69
2023/04/11 07:33:33;;;;;;;11.10;1.70;;;8.50;99.90;;;;;;4956905;28;20511;-68
2023/04/11 07:35:59;;;;;;;15.65;1.73;;;8.50;99.90;;;;;;4967623;28;20118;-68
2023/04/11 07:38:28;;;;;;;8.35;1.20;;;8.50;99.90;;;;;;4961728;28;20043;-69
2023/04/11 07:40:59;;;;;;;11.65;1.77;;;8.50;99.90;;;;;;4968355;28;20391;-68
2023/04/11 07:43:26;;;;;;;8.48;1.52;;;8.50;99.90;;;;;;4963045;28;20047;-68
2023/04/11 07:45:53;;;;;;;9.57;1.40;;;8.50;99.90;;;;;;4965883;28;20042;-68
2023/04/11 07:48:20;;;;;;;11.15;1.30;;;8.50;99.90;;;;;;4969059;28;20054;-68
2023/04/11 07:50:46;;;;;;;9.60;1.35;;;8.50;99.90;;;;;;4965498;28;20137;-68
2023/04/11 07:53:12;;;;;;;11.77;1.60;;;8.50;99.90;;;;;;4963298;28;20533;-68
2023/04/11 07:55:37;;;;;;;5.75;1.08;;;8.60;99.90;;;;;;4967078;28;20131;-68
2023/04/11 07:58:03;;;;;;;8.80;1.75;;;8.60;99.90;;;;;;4971059;28;20073;-68
2023/04/11 08:00:31;;;;;;;10.73;1.73;;;8.60;99.90;;;;;;4960248;28;20411;-68
2023/04/11 08:03:04;;;;;;;10.23;1.50;;;8.60;99.90;;;;;;4965306;28;20114;-69
2023/04/11 08:05:31;;;;;;;6.20;1.30;;;8.60;99.90;;;;;;4967120;28;20059;-68
2023/04/11 08:07:56;;;;;;;10.43;1.67;;;8.60;99.90;;;;;;4971031;28;20035;-69
2023/04/11 08:10:23;;;;;;;9.20;1.58;;;8.60;99.90;;;;;;4962704;28;20052;-69
2023/04/11 08:12:49;;;;;;;8.40;1.35;;;8.60;99.90;;;;;;4964874;28;20507;-69
2023/04/11 08:15:15;;;;;;;9.57;1.80;;;8.90;99.90;;;;;;4970509;28;20046;-69
2023/04/11 08:17:42;;;;;;;13.38;1.80;;;9.60;99.90;;;;;;4959504;28;20463;-68
2023/04/11 08:20:12;;;;;;;7.50;1.13;;;10.00;99.90;;;;;;4966821;28;20454;-69
2023/04/11 08:22:40;;;;;;;9.13;1.80;;;9.90;99.90;;;;;;4965978;28;20035;-69
2023/04/11 08:25:08;;;;;;;10.10;1.50;;;9.70;99.90;;;;;;4966504;28;20085;-70
2023/04/11 08:27:34;;;;;;;7.80;1.13;;;9.50;99.90;;;;;;4960769;28;20303;-70
2023/04/11 08:30:01;;;;;;;9.85;1.75;;;9.50;99.90;;;;;;4967357;28;20037;-70
2023/04/11 08:32:26;;;;;;;8.65;1.63;;;10.30;99.90;;;;;;4963803;28;20051;-69
2023/04/11 08:34:52;;;;;;;9.98;1.55;;;11.30;99.90;;;;;;4967214;28;20051;-69
2023/04/11 08:37:18;;;;;;;10.90;2.03;;;12.20;99.90;;;;;;4957739;28;20070;-70
2023/04/11 08:39:43;;;;;;;7.32;0.95;;;13.10;99.90;;;;;;4964978;28;20098;-70
2023/04/11 08:42:30;;;;;;;7.45;1.30;;;13.80;99.90;;;;;;4962081;28;20050;-69
2023/04/11 08:44:57;;;;;;;8.57;1.60;;;13.70;99.90;;;;;;4965799;28;20031;-70
2023/04/11 08:47:24;;;;;;;9.25;1.27;;;13.00;99.90;;;;;;4965379;28;20038;-70
2023/04/11 08:49:50;;;;;;;5.85;1.20;;;12.30;99.90;;;;;;4966086;28;20101;-71
2023/04/11 08:52:20;;;;;;;9.35;1.70;;;12.10;99.90;;;;;;4964256;28;20085;-70
2023/04/11 08:54:55;;;;;;;8.88;1.33;;;11.70;99.90;;;;;;4967906;28;20058;-71
2023/04/11 08:57:24;;;;;;;5.03;1.02;;;11.50;99.90;;;;;;4970234;28;20043;-71
2023/04/11 08:59:52;;;;;;;6.47;1.48;;;11.50;99.90;;;;;;4968175;28;20485;-69
2023/04/11 09:02:18;;;;;;;6.63;1.15;;;11.90;99.90;;;;;;4962667;28;20332;-70
2023/04/11 09:04:44;;;;;;;7.85;1.17;;;12.70;99.90;;;;;;4965349;28;20055;-70
2023/04/11 09:07:10;;;;;;;8.05;1.48;;;13.60;99.90;;;;;;4975150;28;20050;-71
2023/04/11 09:09:38;;;;;;;9.75;1.50;;;14.30;99.90;;;;;;4988742;28;20034;-71
2023/04/11 09:12:04;;;;;;;7.30;1.20;;;14.40;99.90;;;;;;4970661;28;20081;-70
2023/04/11 09:14:30;;;;;;;4.35;1.15;;;13.70;99.90;;;;;;4970279;28;20062;-71
2023/04/11 09:16:58;;;;;;;5.55;0.90;;;13.40;99.90;;;;;;4952923;28;20031;-70
2023/04/11 09:19:26;;;;;;;7.60;1.00;;;13.30;99.90;;;;;;4966489;28;20101;-70
2023/04/11 09:21:53;;;;;;;7.30;1.40;;;13.10;99.90;;;;;;4965734;28;20514;-70
2023/04/11 09:24:19;;;;;;;7.78;1.23;;;13.00;99.90;;;;;;4966344;28;20069;-71
2023/04/11 09:26:45;;;;;;;9.55;1.60;;;12.80;99.90;;;;;;4965473;28;20046;-71
2023/04/11 09:29:34;;;;;;;9.50;2.22;;;13.40;99.90;;;;;;4969316;28;20046;-71
2023/04/11 09:32:00;;;;;;;7.18;1.60;;;14.00;99.90;;;;;;4966515;28;20406;-71
2023/04/11 09:34:28;;;;;;;8.90;1.38;;;14.40;99.90;;;;;;4969751;28;20042;-71
2023/04/11 09:36:55;;;;;;;10.98;2.60;;;14.80;99.90;;;;;;4958281;28;20078;-71
2023/04/11 09:39:21;;;;;;;9.18;1.50;;;15.10;99.90;;;;;;4982033;28;20043;-71
2023/04/11 09:41:46;;;;;;;4.43;0.70;;;14.50;99.90;;;;;;4968283;28;20162;-72
2023/04/11 09:44:12;;;;;;;6.20;1.30;;;14.50;99.90;;;;;;4947310;28;20117;-71
2023/04/11 09:46:58;;;;;;;7.28;1.30;;;14.60;99.90;;;;;;4952435;28;20562;-72
2023/04/11 09:49:23;;;;;;;5.93;1.70;;;14.90;99.90;;;;;;4971662;28;20042;-72
2023/04/11 09:51:52;;;;;;;7.57;1.45;;;15.30;99.90;;;;;;4951599;28;20047;-72
2023/04/11 09:54:21;;;;;;;8.85;1.63;;;15.60;99.90;;;;;;4964509;28;20054;-72
2023/04/11 09:56:48;;;;;;;8.00;1.40;;;15.50;99.90;;;;;;4960964;28;20049;-72
2023/04/11 09:59:14;;;;;;;7.70;1.38;;;15.20;99.90;;;;;;4961370;28;20047;-72
2023/04/11 10:01:41;;;;;;;8.85;1.48;;;15.20;99.90;;;;;;4967899;28;20100;-72
2023/04/11 10:04:09;;;;;;;8.10;1.35;;;15.40;99.90;;;;;;4955522;28;20459;-72
2023/04/11 10:07:11;;;;;;;7.05;1.63;;;15.70;99.90;;;;;;4966486;28;20055;-72
2023/04/11 10:09:40;;;;;;;7.97;1.35;;;16.00;99.90;;;;;;4954126;28;20380;-72
2023/04/11 10:12:06;;;;;;;10.32;2.33;;;16.10;99.90;;;;;;4964395;28;20054;-72
2023/04/11 10:14:37;;;;;;;5.90;0.93;;;16.20;99.90;;;;;;4963035;28;20122;-71
2023/04/11 10:17:15;;;;;;;7.85;1.88;;;16.30;99.90;;;;;;4978445;28;20055;-72
2023/04/11 10:19:42;;;;;;;8.75;1.70;;;15.50;99.90;;;;;;4966051;28;20082;-72
2023/04/11 10:22:08;;;;;;;7.32;1.10;;;14.70;99.90;;;;;;4960169;28;20043;-72
2023/04/11 10:24:34;;;;;;;7.10;1.20;;;14.10;99.90;;;;;;4967544;28;20043;-72
2023/04/11 10:27:02;;;;;;;7.53;1.75;;;13.50;99.90;;;;;;4964935;28;20043;-72
2023/04/11 10:29:32;;;;;;;7.05;1.42;;;12.50;99.90;;;;;;4964578;28;20039;-72
2023/04/11 10:32:19;;;;;;;10.32;1.30;;;11.80;99.90;;;;;;4962323;28;20041;-71
2023/04/11 10:34:53;;;;;;;7.95;1.63;;;11.30;99.90;;;;;;4959710;28;20368;-71
2023/04/11 10:37:35;;;;;;;8.27;1.30;;;10.90;99.90;;;;;;4943309;28;20055;-71
2023/04/11 10:40:08;;;;;;;10.43;1.85;;;10.70;99.90;;;;;;4965160;28;20040;-71
2023/04/11 10:42:39;;;;;;;5.78;1.15;;;10.50;99.90;;;;;;4949465;28;20039;-71
2023/04/11 10:45:24;;;;;;;6.85;0.93;;;10.40;99.90;;;;;;4966141;28;20035;-71
2023/04/11 10:47:55;;;;;;;9.77;1.20;;;10.30;99.90;;;;;;4963479;28;20047;-71
2023/04/11 10:50:24;;;;;;;7.35;1.02;;;10.90;99.90;;;;;;4972389;28;20094;-71
2023/04/11 10:52:52;;;;;;;11.18;1.50;;;11.50;99.90;;;;;;4963630;28;20138;-71
2023/04/11 10:55:19;;;;;;;10.35;1.48;;;11.70;99.90;;;;;;4962048;28;20038;-72
2023/04/11 10:58:06;;;;;;;8.65;1.17;;;11.50;99.90;;;;;;4969707;28;20043;-72
2023/04/11 11:00:48;;;;;;;7.10;1.23;;;11.50;99.90;;;;;;4969906;28;20110;-72
2023/04/11 11:03:21;;;;;;;8.35;1.52;;;11.40;99.90;;;;;;4959154;28;20506;-72
2023/04/11 11:05:56;;;;;;;7.53;1.40;;;11.40;99.90;;;;;;4970404;28;20051;-72
2023/04/11 11:08:36;;;;;;;6.10;1.02;;;11.40;99.90;;;;;;4968284;28;20042;-72
2023/04/11 11:11:07;;;;;;;6.90;1.20;;;11.60;99.90;;;;;;4963374;28;20058;-72
2023/04/11 11:13:54;;;;;;;7.85;0.98;;;11.60;99.90;;;;;;4970278;28;20436;-73
2023/04/11 11:16:25;;;;;;;9.23;1.80;;;11.40;99.90;;;;;;4987699;28;20083;-72
2023/04/11 11:18:53;;;;;;;8.63;1.45;;;11.30;99.90;;;;;;4967984;28;20046;-71
2023/04/11 11:21:23;;;;;;;6.88;1.25;;;11.70;99.90;;;;;;4967008;28;20125;-72
2023/04/11 11:23:53;;;;;;;8.02;2.08;;;12.40;99.90;;;;;;4967176;28;20491;-72
2023/04/11 11:26:19;;;;;;;9.90;1.73;;;13.20;99.90;;;;;;4968879;28;20035;-73
2023/04/11 11:28:46;;;;;;;6.97;1.10;;;13.50;99.90;;;;;;4990508;28;20046;-72
2023/04/11 11:31:13;;;;;;;7.18;1.17;;;13.10;99.90;;;;;;4968221;28;20054;-72
2023/04/11 11:33:43;;;;;;;7.82;1.45;;;13.40;99.90;;;;;;4968497;28;20050;-72
2023/04/11 11:36:10;;;;;;;8.02;1.30;;;14.00;99.90;;;;;;4970548;28;20445;-72
2023/04/11 11:38:36;;;;;;;7.03;1.27;;;14.70;99.90;;;;;;4966027;28;20039;-73
2023/04/11 11:41:02;;;;;;;9.60;1.15;;;15.20;99.90;;;;;;4963481;28;20367;-73
2023/04/11 11:43:28;;;;;;;6.57;1.02;;;15.70;99.90;;;;;;4960136;28;20109;-73
2023/04/11 11:46:13;;;;;;;7.20;1.45;;;16.10;99.90;;;;;;4967194;28;20098;-73
2023/04/11 11:48:56;;;;;;;6.43;1.50;;;16.40;99.90;;;;;;4961779;28;20054;-73
2023/04/11 11:51:21;;;;;;;6.53;1.30;;;16.50;99.90;;;;;;4963262;28;20038;-73
2023/04/11 11:54:08;;;;;;;9.40;1.33;;;16.80;99.90;;;;;;4967656;28;20098;-73
2023/04/11 11:56:38;;;;;;;4.82;0.93;;;16.90;99.90;;;;;;4970709;28;20051;-73
2023/04/11 11:59:05;;;;;;;6.47;1.00;;;16.00;99.90;;;;;;4964834;28;20198;-74
2023/04/11 12:01:32;;;;;;;4.88;1.20;;;15.20;99.90;;;;;;4970849;28;20043;-73
2023/04/11 12:03:59;;;;;;;5.57;0.95;;;15.00;99.90;;;;;;4967067;28;20435;-72
2023/04/11 12:06:32;;;;;;;6.25;1.33;;;15.40;99.90;;;;;;4975544;28;20137;-73
2023/04/11 12:09:03;;;;;;;6.95;1.40;;;15.40;99.90;;;;;;4965438;28;20293;-73
2023/04/11 12:11:36;;;;;;;6.70;1.20;;;15.70;99.90;;;;;;4969512;28;20069;-71
2023/04/11 12:14:02;;;;;;;7.13;1.20;;;15.70;99.90;;;;;;4957786;28;20030;-72
2023/04/11 12:16:27;;;;;;;7.38;1.23;;;16.00;99.90;;;;;;4974085;28;20046;-72
2023/04/11 12:18:59;;;;;;;5.25;1.33;;;16.30;99.90;;;;;;4966230;28;20114;-72
2023/04/11 12:21:25;;;;;;;11.35;1.40;;;16.40;99.90;;;;;;4982247;28;20151;-72
2023/04/11 12:23:51;;;;;;;6.75;1.30;;;15.80;99.90;;;;;;4967379;28;20584;-72
2023/04/11 12:26:19;;;;;;;6.57;0.93;;;15.10;99.90;;;;;;4975521;28;20038;-73
2023/04/11 12:28:45;;;;;;;7.57;1.10;;;14.70;99.90;;;;;;4960687;28;20047;-73
2023/04/11 12:31:11;;;;;;;8.32;1.40;;;15.10;99.90;;;;;;4973389;28;20547;-73
2023/04/11 12:33:37;;;;;;;7.60;1.38;;;15.40;99.90;;;;;;4968684;28;20035;-72
2023/04/11 12:36:06;;;;;;;8.73;1.20;;;15.00;99.90;;;;;;4971630;28;20038;-80
2023/04/11 12:38:32;;;;;;;6.10;0.98;;;14.40;99.90;;;;;;4959944;28;20078;-80
2023/04/11 12:40:59;;;;;;;5.82;1.20;;;14.50;99.90;;;;;;4974548;28;20038;-75
2023/04/11 12:43:24;;;;;;;4.93;0.93;;;15.20;99.90;;;;;;4974984;28;20041;-76
2023/04/11 12:45:50;;;;;;;6.68;1.15;;;15.90;99.90;;;;;;4974196;28;20042;-75
2023/04/11 12:48:16;;;;;;;8.57;1.40;;;16.30;99.90;;;;;;4966103;28;20041;-75
2023/04/11 12:50:42;;;;;;;7.15;1.20;;;16.20;99.40;;;;;;4971161;28;20612;-75
2023/04/11 12:53:07;;;;;;;5.75;1.20;;;16.30;99.90;;;;;;4969949;28;20047;-75